Time;durP1;ratioP1;P1;durP2;ratioP2;P2;SDS_P1;SDS_P2;PMS_P1;PMS_P2;Temp;Humidity;BMP_temperature;BMP_pressure;BME280_temperature;BME280_humidity;BME280_pressure;Samples;Min_cycle;Max_cycle;Signal;HPM_P1;HPM_P2
2023/01/17 00:01:59;;;;;;;12.18;8.13;;;22.50;51.70;;;;;;6103981;28;80902;-59
2023/01/17 00:11:38;;;;;;;11.95;8.35;;;22.50;51.60;;;;;;6104601;28;80583;-57
2023/01/17 00:14:39;;;;;;;13.05;8.70;;;22.50;51.80;;;;;;6095340;28;81557;-58
2023/01/17 00:17:39;;;;;;;13.88;8.75;;;22.50;51.50;;;;;;6084944;28;80612;-58
2023/01/17 01:35:11;;;;;;;6.55;4.55;;;22.30;50.20;;;;;;6082222;28;86212;-60
2023/01/17 01:38:11;;;;;;;7.05;4.30;;;22.30;50.80;;;;;;6082625;28;80283;-60
2023/01/17 01:41:12;;;;;;;7.25;4.43;;;22.30;50.00;;;;;;6085014;28;80884;-58
2023/01/17 01:44:12;;;;;;;7.43;4.38;;;22.30;49.90;;;;;;6106654;28;80381;-58
2023/01/17 01:47:13;;;;;;;5.38;3.80;;;22.30;49.70;;;;;;6107077;28;81707;-59
2023/01/17 01:50:13;;;;;;;6.03;4.18;;;22.30;49.80;;;;;;6119819;28;82203;-58
2023/01/17 01:53:14;;;;;;;6.00;3.78;;;22.30;49.20;;;;;;6106861;28;81195;-58
2023/01/17 01:56:14;;;;;;;5.43;3.75;;;22.30;48.90;;;;;;6107999;28;80626;-59
2023/01/17 01:59:15;;;;;;;4.75;3.08;;;22.30;48.80;;;;;;6107422;28;81072;-59
2023/01/17 02:02:16;;;;;;;6.38;3.63;;;22.20;48.70;;;;;;6102284;28;80695;-60
2023/01/17 02:05:16;;;;;;;4.30;3.10;;;22.30;49.50;;;;;;6109022;28;81801;-58
2023/01/17 02:08:17;;;;;;;4.03;3.00;;;22.30;49.20;;;;;;6104878;28;80382;-59
2023/01/17 02:11:18;;;;;;;5.13;2.72;;;22.30;49.20;;;;;;6103006;28;81204;-60
2023/01/17 02:14:19;;;;;;;3.92;2.70;;;22.20;48.90;;;;;;6098152;28;80383;-59
2023/01/17 02:17:19;;;;;;;4.10;3.00;;;22.20;49.50;;;;;;6107462;28;80913;-60
2023/01/17 02:20:20;;;;;;;4.85;2.85;;;22.30;49.20;;;;;;6103623;28;80893;-59
2023/01/17 02:23:20;;;;;;;2.80;2.25;;;22.20;49.30;;;;;;6112003;28;80950;-59
2023/01/17 02:26:21;;;;;;;4.07;2.53;;;22.20;49.40;;;;;;6110712;28;81720;-59
2023/01/17 02:29:21;;;;;;;3.20;2.25;;;22.20;49.60;;;;;;6107792;28;80912;-58
2023/01/17 02:32:22;;;;;;;3.45;2.92;;;22.20;49.80;;;;;;6097236;28;80604;-58
2023/01/17 02:35:23;;;;;;;3.03;2.35;;;22.20;49.80;;;;;;6105107;28;80845;-59
2023/01/17 02:38:24;;;;;;;4.32;2.60;;;22.20;49.40;;;;;;6098167;28;81114;-59
2023/01/17 02:41:24;;;;;;;5.05;2.33;;;22.30;49.90;;;;;;6106815;28;81453;-59
2023/01/17 02:44:25;;;;;;;3.08;2.00;;;22.20;49.30;;;;;;6107570;28;80872;-59
2023/01/17 02:47:26;;;;;;;3.00;1.90;;;22.20;49.30;;;;;;6105808;28;82141;-59
2023/01/17 02:50:26;;;;;;;3.03;2.00;;;22.20;49.70;;;;;;6096237;28;80651;-59
2023/01/17 02:53:27;;;;;;;3.00;2.30;;;22.20;49.70;;;;;;6098422;28;80927;-57
2023/01/17 02:56:27;;;;;;;3.55;2.10;;;22.20;49.60;;;;;;6105777;28;80632;-59
2023/01/17 02:59:28;;;;;;;3.10;2.28;;;22.20;49.80;;;;;;6106522;28;80388;-60
2023/01/17 03:02:28;;;;;;;2.55;2.08;;;22.20;49.40;;;;;;6106630;28;80975;-62
2023/01/17 03:05:29;;;;;;;3.38;2.10;;;22.30;49.80;;;;;;6106363;28;81511;-61
2023/01/17 03:08:29;;;;;;;3.05;2.45;;;22.20;49.40;;;;;;6105084;28;81145;-61
2023/01/17 03:11:30;;;;;;;3.75;2.15;;;22.20;49.50;;;;;;6097198;28;87559;-61
2023/01/17 03:14:31;;;;;;;2.75;1.80;;;22.30;49.30;;;;;;6095038;28;80694;-59
2023/01/17 03:17:31;;;;;;;2.58;1.88;;;22.30;48.50;;;;;;6118296;28;80967;-61
2023/01/17 03:20:32;;;;;;;2.13;1.90;;;22.30;49.30;;;;;;6105720;28;80006;-60
2023/01/17 03:23:32;;;;;;;3.10;1.90;;;22.20;49.50;;;;;;6112173;28;80636;-64
2023/01/17 03:26:33;;;;;;;3.03;1.75;;;22.30;49.30;;;;;;6106962;28;82741;-63
2023/01/17 03:29:33;;;;;;;2.08;1.63;;;22.30;49.30;;;;;;6101942;28;80324;-64
2023/01/17 03:32:34;;;;;;;2.28;1.90;;;22.30;49.20;;;;;;6111730;28;81573;-63
2023/01/17 03:35:35;;;;;;;2.25;1.77;;;22.30;48.90;;;;;;6102284;28;81960;-62
2023/01/17 03:38:36;;;;;;;1.88;1.65;;;22.30;48.60;;;;;;6097886;28;81437;-61
2023/01/17 03:41:36;;;;;;;1.83;1.55;;;22.30;49.00;;;;;;6105420;28;84000;-61
2023/01/17 03:44:37;;;;;;;2.08;1.88;;;22.30;48.60;;;;;;6100610;28;81866;-61
2023/01/17 03:47:37;;;;;;;1.80;1.60;;;22.30;48.90;;;;;;6104824;28;80454;-61
2023/01/17 03:50:38;;;;;;;2.10;1.70;;;22.30;48.80;;;;;;6106043;28;80362;-63
2023/01/17 03:53:38;;;;;;;2.30;1.90;;;22.30;48.80;;;;;;6104947;28;80536;-62
2023/01/17 03:56:39;;;;;;;1.70;1.60;;;22.30;48.60;;;;;;6094565;28;80890;-61
2023/01/17 03:59:39;;;;;;;1.90;1.60;;;22.30;48.80;;;;;;6104449;28;80692;-62
2023/01/17 04:02:40;;;;;;;2.60;1.80;;;22.30;48.80;;;;;;6091075;28;81291;-61
2023/01/17 04:05:40;;;;;;;1.67;1.58;;;22.30;48.90;;;;;;6105433;28;80318;-62
2023/01/17 04:08:41;;;;;;;1.58;1.48;;;22.30;48.80;;;;;;6105539;28;81092;-61
2023/01/17 04:11:41;;;;;;;1.70;1.60;;;22.30;48.90;;;;;;6101251;28;82874;-63
2023/01/17 04:14:42;;;;;;;1.60;1.50;;;22.30;48.80;;;;;;6094132;28;80722;-63
2023/01/17 04:17:43;;;;;;;2.45;1.60;;;22.30;49.00;;;;;;6089160;28;82419;-62
2023/01/17 04:20:43;;;;;;;1.85;1.40;;;22.30;48.80;;;;;;6109143;28;80799;-62
2023/01/17 04:23:44;;;;;;;1.60;1.50;;;22.30;48.70;;;;;;6109127;28;81012;-64
2023/01/17 04:26:44;;;;;;;3.13;1.70;;;22.30;48.80;;;;;;6108321;28;81197;-64
2023/01/17 04:29:45;;;;;;;1.50;1.40;;;22.30;48.70;;;;;;6109017;28;80444;-63
2023/01/17 04:32:45;;;;;;;1.75;1.52;;;22.30;48.60;;;;;;6088786;28;80287;-63
2023/01/17 04:35:46;;;;;;;1.65;1.50;;;22.30;48.50;;;;;;6111827;28;80610;-62
2023/01/17 04:38:46;;;;;;;2.10;1.70;;;22.30;49.00;;;;;;6104875;28;80438;-60
2023/01/17 04:41:47;;;;;;;1.95;1.60;;;22.30;48.60;;;;;;6104027;28;80301;-61
2023/01/17 04:44:47;;;;;;;1.58;1.23;;;22.30;48.50;;;;;;6103264;28;80877;-61
2023/01/17 04:47:48;;;;;;;1.42;1.30;;;22.30;48.50;;;;;;6098510;28;82572;-60
2023/01/17 04:50:48;;;;;;;1.80;1.50;;;22.30;48.50;;;;;;6095568;28;80286;-59
2023/01/17 04:53:49;;;;;;;2.10;1.52;;;22.30;48.20;;;;;;6093648;28;80662;-61
2023/01/17 04:56:49;;;;;;;2.38;1.65;;;22.30;48.20;;;;;;6098835;28;80594;-63
2023/01/17 04:59:52;;;;;;;1.75;1.40;;;22.30;48.10;;;;;;6100999;28;81973;-60
2023/01/17 05:02:52;;;;;;;2.42;1.65;;;22.30;47.50;;;;;;6091640;28;80830;-61
2023/01/17 05:05:53;;;;;;;1.63;1.38;;;22.30;47.40;;;;;;6094100;28;81052;-60
2023/01/17 05:08:53;;;;;;;2.17;1.70;;;22.30;47.20;;;;;;6103923;28;81565;-59
2023/01/17 05:11:57;;;;;;;1.67;1.58;;;22.30;47.20;;;;;;6100079;28;81408;-60
2023/01/17 05:14:57;;;;;;;1.65;1.35;;;22.30;47.10;;;;;;6086242;28;83410;-60
2023/01/17 05:17:58;;;;;;;2.28;1.40;;;22.30;47.20;;;;;;6092766;28;80453;-60
2023/01/17 05:20:58;;;;;;;2.13;1.40;;;22.30;47.20;;;;;;6085534;28;82029;-63
2023/01/17 05:23:59;;;;;;;1.88;1.63;;;22.30;47.00;;;;;;6101800;28;81312;-62
2023/01/17 05:27:01;;;;;;;1.80;1.35;;;22.30;47.10;;;;;;6101629;28;80238;-62
2023/01/17 05:30:02;;;;;;;1.75;1.45;;;22.30;47.30;;;;;;6092993;28;80827;-62
2023/01/17 05:33:03;;;;;;;3.47;1.40;;;22.30;47.20;;;;;;6094249;28;80472;-62
2023/01/17 05:36:03;;;;;;;2.03;1.63;;;22.30;47.30;;;;;;6102866;28;82553;-61
2023/01/17 05:39:04;;;;;;;2.75;1.67;;;22.30;47.40;;;;;;6103686;28;80374;-61
2023/01/17 05:42:04;;;;;;;2.38;1.55;;;22.40;48.10;;;;;;6105004;28;81618;-61
2023/01/17 05:45:05;;;;;;;2.17;1.50;;;22.40;48.80;;;;;;6103861;28;81102;-59
2023/01/17 05:48:05;;;;;;;4.38;1.80;;;22.40;49.30;;;;;;6103125;28;80706;-58
2023/01/17 05:51:06;;;;;;;7.97;2.08;;;22.50;49.10;;;;;;6103053;28;80443;-59
2023/01/17 05:54:06;;;;;;;5.63;1.60;;;22.50;48.70;;;;;;6103844;28;80299;-56
2023/01/17 05:57:07;;;;;;;2.75;1.90;;;22.50;49.60;;;;;;6103244;28;80578;-59
2023/01/17 06:00:07;;;;;;;3.00;1.83;;;22.50;49.40;;;;;;6101732;28;80923;-58
2023/01/17 06:03:08;;;;;;;10.57;1.88;;;22.50;49.00;;;;;;6103461;28;80273;-58
2023/01/17 06:06:08;;;;;;;2.90;1.88;;;22.50;49.40;;;;;;6103353;28;81568;-56
2023/01/17 06:09:10;;;;;;;5.68;2.78;;;22.50;49.30;;;;;;6103801;28;80999;-56
2023/01/17 06:12:11;;;;;;;6.10;1.83;;;22.50;49.20;;;;;;6103416;28;80200;-59
2023/01/17 06:15:11;;;;;;;6.43;2.28;;;22.40;48.90;;;;;;6101167;28;80743;-59
2023/01/17 06:18:12;;;;;;;8.60;1.83;;;22.40;48.90;;;;;;6103713;28;80376;-59
2023/01/17 06:21:12;;;;;;;5.60;2.05;;;22.40;49.00;;;;;;6105140;28;80264;-58
2023/01/17 06:24:13;;;;;;;2.72;2.17;;;22.40;49.10;;;;;;6105302;28;80621;-58
2023/01/17 06:27:13;;;;;;;4.90;2.05;;;22.40;49.30;;;;;;6107859;28;80320;-58
2023/01/17 06:30:14;;;;;;;3.65;1.75;;;22.30;49.30;;;;;;6106216;28;81430;-57
2023/01/17 06:33:14;;;;;;;5.72;2.10;;;22.40;49.30;;;;;;6107390;28;80800;-56
2023/01/17 06:36:15;;;;;;;4.25;2.33;;;22.40;49.30;;;;;;6105243;28;80899;-58
2023/01/17 06:39:15;;;;;;;7.57;2.50;;;22.40;49.60;;;;;;6095953;28;80494;-61
2023/01/17 06:42:16;;;;;;;3.58;2.13;;;22.40;49.50;;;;;;6091498;28;81276;-58
2023/01/17 06:45:16;;;;;;;7.57;2.55;;;22.40;49.70;;;;;;6090449;28;81121;-59
2023/01/17 06:48:17;;;;;;;6.43;3.00;;;22.40;49.60;;;;;;6089881;28;83041;-59
2023/01/17 06:51:17;;;;;;;5.65;2.42;;;22.40;49.40;;;;;;6106013;28;80738;-57
2023/01/17 06:54:18;;;;;;;5.35;3.30;;;22.40;49.00;;;;;;6091274;28;83403;-58
2023/01/17 06:57:18;;;;;;;6.88;2.53;;;22.40;49.20;;;;;;6089857;28;80920;-59
2023/01/17 07:00:19;;;;;;;5.55;3.08;;;22.40;49.10;;;;;;6110783;28;80575;-56
2023/01/17 07:03:20;;;;;;;5.38;2.70;;;22.40;48.90;;;;;;6103096;28;80197;-58
2023/01/17 07:06:20;;;;;;;7.18;2.85;;;22.40;48.80;;;;;;6105513;28;82201;-58
2023/01/17 07:09:21;;;;;;;6.30;2.45;;;22.40;48.30;;;;;;6094162;28;80683;-60
2023/01/17 07:12:21;;;;;;;4.47;2.72;;;22.40;48.40;;;;;;6088503;28;81178;-59
2023/01/17 07:15:22;;;;;;;9.38;3.83;;;22.50;48.60;;;;;;6083243;28;80858;-59
2023/01/17 07:18:22;;;;;;;7.03;3.17;;;22.50;49.00;;;;;;6090416;28;80166;-60
2023/01/17 07:21:23;;;;;;;7.50;3.30;;;22.50;49.10;;;;;;6090056;28;81939;-60
2023/01/17 07:24:24;;;;;;;6.40;2.90;;;22.50;49.00;;;;;;6092927;28;80460;-59
2023/01/17 07:27:24;;;;;;;6.18;3.20;;;22.50;49.10;;;;;;6093291;28;80381;-61
2023/01/17 07:30:25;;;;;;;5.78;3.30;;;22.50;49.00;;;;;;6107948;28;80386;-60
2023/01/17 07:33:26;;;;;;;6.35;3.65;;;22.50;48.90;;;;;;6084993;28;82469;-59
2023/01/17 07:36:26;;;;;;;5.13;2.95;;;22.50;48.70;;;;;;6097787;28;81096;-59
2023/01/17 07:39:27;;;;;;;8.23;3.33;;;22.50;48.70;;;;;;6084918;28;86422;-60
2023/01/17 07:42:27;;;;;;;11.05;3.40;;;22.50;48.50;;;;;;6091826;28;80149;-60
2023/01/17 07:45:28;;;;;;;6.32;3.42;;;22.50;48.50;;;;;;6101903;28;82486;-61
2023/01/17 07:48:28;;;;;;;6.22;3.45;;;22.50;48.60;;;;;;6104103;28;85085;-59
2023/01/17 07:51:29;;;;;;;5.40;3.00;;;22.50;48.70;;;;;;6093898;28;82011;-59
2023/01/17 07:54:29;;;;;;;9.45;3.40;;;22.50;48.50;;;;;;6091381;28;81610;-59
2023/01/17 07:57:31;;;;;;;9.15;3.50;;;22.50;48.50;;;;;;6095657;28;85484;-60
2023/01/17 08:00:32;;;;;;;8.75;2.95;;;22.50;48.40;;;;;;6100412;28;80558;-59
2023/01/17 08:03:35;;;;;;;10.43;3.65;;;22.50;48.60;;;;;;6091642;28;82334;-59
2023/01/17 08:06:35;;;;;;;8.43;3.40;;;22.50;48.70;;;;;;6092061;28;80419;-48
2023/01/17 08:09:36;;;;;;;10.65;3.83;;;22.40;48.60;;;;;;6094295;28;80401;-46
2023/01/17 08:12:37;;;;;;;6.40;3.08;;;22.50;48.60;;;;;;6094629;28;85216;-47
2023/01/17 08:15:37;;;;;;;4.97;3.25;;;22.40;48.80;;;;;;6094421;28;80882;-56
2023/01/17 08:18:38;;;;;;;6.72;3.33;;;22.40;48.40;;;;;;6092859;28;80463;-56
2023/01/17 08:21:39;;;;;;;18.42;4.65;;;22.40;48.20;;;;;;6103413;28;83800;-54
2023/01/17 08:24:40;;;;;;;16.50;4.80;;;22.40;48.00;;;;;;6087299;28;82534;-56
2023/01/17 08:27:41;;;;;;;10.00;4.05;;;22.40;48.40;;;;;;6101646;28;80273;-60
2023/01/17 08:30:41;;;;;;;10.25;3.97;;;22.40;48.40;;;;;;6103833;28;80123;-59
2023/01/17 08:33:42;;;;;;;12.93;4.13;;;22.40;48.60;;;;;;6100820;28;81073;-59
2023/01/17 08:36:43;;;;;;;8.05;4.30;;;22.40;47.90;;;;;;6096203;28;81588;-59
2023/01/17 08:39:44;;;;;;;12.90;6.50;;;22.40;48.30;;;;;;6105371;28;80607;-58
2023/01/17 08:42:44;;;;;;;19.02;6.45;;;22.40;48.40;;;;;;6091906;28;81044;-59
2023/01/17 08:45:45;;;;;;;9.65;5.25;;;22.40;48.30;;;;;;6102543;28;85685;-59
2023/01/17 08:48:46;;;;;;;10.43;5.43;;;22.40;48.50;;;;;;6096145;28;81483;-61
2023/01/17 08:51:46;;;;;;;8.23;4.82;;;22.40;48.50;;;;;;6101238;28;85388;-57
2023/01/17 08:54:47;;;;;;;9.48;5.28;;;22.40;48.20;;;;;;6090931;28;81496;-59
2023/01/17 08:57:47;;;;;;;8.68;4.78;;;22.50;48.20;;;;;;6101275;28;80895;-58
2023/01/17 09:00:49;;;;;;;14.32;4.90;;;22.40;48.00;;;;;;6092603;28;81424;-58
2023/01/17 09:03:50;;;;;;;9.10;4.22;;;22.50;48.10;;;;;;6088768;28;81999;-58
2023/01/17 09:06:51;;;;;;;8.88;4.70;;;22.50;48.20;;;;;;6098742;28;80537;-59
2023/01/17 09:09:51;;;;;;;9.93;5.15;;;22.50;48.10;;;;;;6084076;28;80936;-60
2023/01/17 09:12:52;;;;;;;10.57;4.50;;;22.50;47.90;;;;;;6092615;28;80769;-60
2023/01/17 09:15:52;;;;;;;9.10;4.55;;;22.50;47.50;;;;;;6089796;28;80386;-59
2023/01/17 09:18:53;;;;;;;11.05;4.32;;;22.50;47.80;;;;;;6089185;28;80666;-59
2023/01/17 09:21:54;;;;;;;7.38;4.00;;;22.60;47.60;;;;;;6092732;28;81925;-59
2023/01/17 09:24:55;;;;;;;8.60;4.65;;;22.50;47.50;;;;;;6093256;28;80220;-60
2023/01/17 09:27:55;;;;;;;7.22;4.40;;;22.50;47.40;;;;;;6091257;28;80340;-59
2023/01/17 09:30:56;;;;;;;8.35;4.57;;;22.50;47.70;;;;;;6098651;28;80511;-60
2023/01/17 09:33:56;;;;;;;8.15;4.50;;;22.50;47.70;;;;;;6096240;28;80460;-61
2023/01/17 09:36:57;;;;;;;8.38;4.47;;;22.60;48.10;;;;;;6097820;28;88192;-64
2023/01/17 09:39:57;;;;;;;8.02;3.97;;;22.60;48.60;;;;;;6088426;28;80972;-59
2023/01/17 09:43:00;;;;;;;6.95;4.18;;;22.60;48.30;;;;;;6092812;28;85030;-60
2023/01/17 09:46:00;;;;;;;7.40;4.20;;;22.70;49.00;;;;;;6089504;28;80320;-60
2023/01/17 09:49:01;;;;;;;8.65;4.05;;;22.70;49.10;;;;;;6094494;28;80815;-59
2023/01/17 09:52:01;;;;;;;11.10;4.50;;;22.60;49.10;;;;;;6087921;28;80513;-62
2023/01/17 09:55:02;;;;;;;12.20;4.85;;;22.70;48.70;;;;;;6099874;28;81234;-54
2023/01/17 09:58:03;;;;;;;8.70;4.43;;;22.60;48.70;;;;;;6103240;28;80582;-60
2023/01/17 10:01:03;;;;;;;9.93;3.85;;;22.60;49.00;;;;;;6093391;28;80954;-58
2023/01/17 10:04:04;;;;;;;8.20;4.60;;;22.70;48.70;;;;;;6102347;28;81154;-60
2023/01/17 10:07:04;;;;;;;8.55;4.45;;;22.70;48.30;;;;;;6089045;28;83480;-59
2023/01/17 10:10:05;;;;;;;7.00;3.72;;;22.70;48.10;;;;;;6098152;28;80667;-60
2023/01/17 10:13:05;;;;;;;10.35;4.47;;;22.70;47.90;;;;;;6091003;28;80358;-59
2023/01/17 10:16:06;;;;;;;8.85;5.00;;;22.70;47.70;;;;;;6089000;28;80440;-60
2023/01/17 10:19:07;;;;;;;7.93;5.22;;;22.70;47.30;;;;;;6102156;28;80526;-57
2023/01/17 10:22:09;;;;;;;9.77;4.70;;;22.70;46.90;;;;;;6105009;28;80538;-61
2023/01/17 10:25:11;;;;;;;9.23;5.20;;;22.70;46.80;;;;;;6097367;28;82257;-59
2023/01/17 10:28:12;;;;;;;8.18;5.38;;;22.80;46.20;;;;;;6104507;28;81951;-60
2023/01/17 10:31:12;;;;;;;8.68;5.00;;;22.90;44.60;;;;;;6103101;28;80286;-59
2023/01/17 10:34:13;;;;;;;7.63;4.63;;;23.20;44.20;;;;;;6089054;28;81226;-59
2023/01/17 10:37:14;;;;;;;9.30;5.00;;;23.30;43.70;;;;;;6086852;28;83612;-58
2023/01/17 10:40:14;;;;;;;16.55;4.82;;;23.50;43.80;;;;;;6091611;28;80693;-58
2023/01/17 10:43:15;;;;;;;8.77;4.50;;;23.70;44.10;;;;;;6088586;28;81156;-56
2023/01/17 10:46:15;;;;;;;7.72;4.43;;;23.90;44.80;;;;;;6099526;28;83808;-59
2023/01/17 10:49:16;;;;;;;8.90;4.35;;;24.10;44.10;;;;;;6091263;28;82118;-59
2023/01/17 10:52:16;;;;;;;6.70;4.22;;;24.30;44.00;;;;;;6086348;28;80409;-57
2023/01/17 10:55:17;;;;;;;6.63;4.53;;;24.50;43.50;;;;;;6108969;28;81405;-58
2023/01/17 10:58:17;;;;;;;6.68;4.45;;;24.70;43.40;;;;;;6095114;28;80072;-58
2023/01/17 11:01:18;;;;;;;8.02;4.30;;;24.80;42.90;;;;;;6096269;28;80740;-58
2023/01/17 11:04:19;;;;;;;7.18;4.20;;;24.90;42.90;;;;;;6094521;28;81486;-57
2023/01/17 11:07:20;;;;;;;7.03;4.47;;;25.10;42.80;;;;;;6106719;28;80535;-57
2023/01/17 11:10:21;;;;;;;7.50;4.43;;;25.20;42.80;;;;;;6106689;28;80492;-59
2023/01/17 11:13:21;;;;;;;6.15;4.28;;;25.30;42.40;;;;;;6105303;28;80482;-58
2023/01/17 11:16:22;;;;;;;7.20;4.72;;;25.20;42.40;;;;;;6104211;28;80433;-56
2023/01/17 11:19:23;;;;;;;5.18;3.60;;;25.20;42.50;;;;;;6101077;28;81076;-59
2023/01/17 11:22:25;;;;;;;5.57;3.58;;;25.30;42.60;;;;;;6097225;28;81390;-56
2023/01/17 11:25:25;;;;;;;14.10;4.47;;;25.40;42.40;;;;;;6070984;28;80458;-59
2023/01/17 11:28:29;;;;;;;6.45;3.75;;;25.50;42.10;;;;;;6074673;28;82153;-58
2023/01/17 11:31:29;;;;;;;5.63;3.85;;;25.40;42.10;;;;;;6080915;28;80611;-58
2023/01/17 11:34:31;;;;;;;5.05;3.60;;;25.40;41.90;;;;;;6080061;28;81905;-59
2023/01/17 11:37:32;;;;;;;5.30;3.65;;;25.60;42.10;;;;;;6082104;28;80798;-59
2023/01/17 11:40:32;;;;;;;5.53;3.78;;;25.60;41.90;;;;;;6092083;28;82713;-59
2023/01/17 11:43:33;;;;;;;8.23;4.07;;;25.70;42.00;;;;;;6099254;28;80718;-59
2023/01/17 11:46:33;;;;;;;9.00;3.67;;;25.70;41.00;;;;;;6090051;28;80909;-59
2023/01/17 11:49:34;;;;;;;6.45;3.83;;;25.50;38.40;;;;;;6089391;28;85725;-59
2023/01/17 11:52:38;;;;;;;4.80;3.33;;;25.50;35.50;;;;;;6098463;28;80837;-58
2023/01/17 11:55:39;;;;;;;5.85;3.35;;;25.40;34.70;;;;;;6090641;28;81816;-59
2023/01/17 11:58:40;;;;;;;9.35;3.38;;;25.30;34.20;;;;;;6089013;28;81453;-60
2023/01/17 12:01:40;;;;;;;6.95;4.32;;;25.30;34.00;;;;;;6092410;28;82112;-60
2023/01/17 12:04:41;;;;;;;7.45;5.15;;;25.20;33.90;;;;;;6096807;28;83516;-59
2023/01/17 12:07:41;;;;;;;10.93;4.32;;;25.20;33.20;;;;;;6095342;28;81485;-59
2023/01/17 12:10:42;;;;;;;10.77;4.20;;;25.00;33.50;;;;;;6097081;28;80719;-59
2023/01/17 12:14:00;;;;;;;8.32;4.20;;;24.80;34.10;;;;;;6093575;28;81995;-58
2023/01/17 12:17:01;;;;;;;8.50;3.97;;;24.70;34.70;;;;;;6086763;28;81035;-59
2023/01/17 12:20:04;;;;;;;7.45;4.63;;;24.70;34.20;;;;;;6081611;28;80409;-59
2023/01/17 12:23:07;;;;;;;7.70;4.53;;;24.80;36.50;;;;;;6109845;28;80689;-58
2023/01/17 12:26:07;;;;;;;7.82;4.10;;;25.00;37.10;;;;;;6106149;28;80371;-58
2023/01/17 12:29:08;;;;;;;7.32;3.70;;;25.30;37.80;;;;;;6087112;28;81530;-58
2023/01/17 12:32:08;;;;;;;6.78;3.63;;;25.50;38.80;;;;;;6091438;28;86262;-56
2023/01/17 12:35:09;;;;;;;7.07;3.45;;;25.60;39.90;;;;;;6090032;28;80789;-58
2023/01/17 12:38:09;;;;;;;8.18;3.67;;;25.60;40.60;;;;;;6089992;28;86335;-58
2023/01/17 12:41:10;;;;;;;7.55;3.22;;;25.60;41.30;;;;;;6092450;28;80782;-59
2023/01/17 12:44:10;;;;;;;8.45;4.05;;;25.70;41.80;;;;;;6092399;28;80215;-59
2023/01/17 12:47:11;;;;;;;6.22;3.65;;;25.70;41.80;;;;;;6085755;28;80602;-59
2023/01/17 12:50:11;;;;;;;4.72;3.30;;;25.50;41.50;;;;;;6089865;28;80453;-58
2023/01/17 12:53:12;;;;;;;7.97;3.83;;;25.40;41.80;;;;;;6087470;28;80278;-57
2023/01/17 12:56:12;;;;;;;4.82;3.35;;;25.40;42.40;;;;;;6076342;28;81969;-58
2023/01/17 12:59:14;;;;;;;6.35;3.75;;;25.30;42.80;;;;;;6104002;28;81449;-57
2023/01/17 13:02:14;;;;;;;7.03;3.38;;;25.20;43.10;;;;;;6096038;28;80735;-58
2023/01/17 13:05:15;;;;;;;6.03;3.63;;;25.10;43.40;;;;;;6095918;28;80327;-58
2023/01/17 13:08:16;;;;;;;6.72;3.28;;;25.10;43.60;;;;;;6101459;28;80420;-56
2023/01/17 13:11:17;;;;;;;5.80;3.55;;;25.10;43.60;;;;;;6096170;28;80157;-58
2023/01/17 13:14:17;;;;;;;6.22;4.10;;;25.10;43.70;;;;;;6103821;28;80353;-57
2023/01/17 13:17:18;;;;;;;4.70;3.53;;;25.10;44.00;;;;;;6099547;28;80152;-59
2023/01/17 13:20:21;;;;;;;7.75;3.20;;;25.10;43.90;;;;;;6097553;28;80602;-58
2023/01/17 13:23:21;;;;;;;7.50;4.07;;;25.10;44.20;;;;;;6106862;28;81491;-59
2023/01/17 13:26:22;;;;;;;6.03;3.90;;;25.10;44.70;;;;;;6104183;28;80449;-55
2023/01/17 13:29:22;;;;;;;7.85;3.85;;;25.10;44.10;;;;;;6103787;28;80811;-56
2023/01/17 13:32:23;;;;;;;6.20;3.75;;;25.00;44.40;;;;;;6103441;28;80639;-55
2023/01/17 13:35:23;;;;;;;10.52;3.60;;;25.00;44.50;;;;;;6100059;28;80143;-55
2023/01/17 13:38:24;;;;;;;7.90;4.10;;;24.90;44.40;;;;;;6100912;28;81973;-57
2023/01/17 13:41:25;;;;;;;7.50;4.00;;;24.90;44.50;;;;;;6108766;28;81230;-59
2023/01/17 13:44:25;;;;;;;7.22;3.55;;;24.90;44.50;;;;;;6105019;28;82032;-58
2023/01/17 13:47:26;;;;;;;5.50;3.45;;;24.90;44.50;;;;;;6107393;28;80403;-59
2023/01/17 13:50:27;;;;;;;6.20;4.20;;;24.90;44.90;;;;;;6106205;28;80438;-56
2023/01/17 13:53:27;;;;;;;6.70;4.97;;;24.90;44.70;;;;;;6093540;28;80137;-58
2023/01/17 13:56:28;;;;;;;10.00;5.38;;;24.90;45.00;;;;;;6097093;28;80506;-59
2023/01/17 13:59:29;;;;;;;8.95;5.47;;;24.90;45.00;;;;;;6099603;28;82699;-59
2023/01/17 14:02:29;;;;;;;8.30;5.18;;;24.90;45.00;;;;;;6101530;28;81512;-58
2023/01/17 14:05:30;;;;;;;11.07;5.70;;;24.90;45.00;;;;;;6089709;28;80220;-60
2023/01/17 14:08:30;;;;;;;8.80;5.70;;;24.90;45.00;;;;;;6101102;28;82286;-59
2023/01/17 14:11:31;;;;;;;11.80;5.03;;;24.90;44.50;;;;;;6102378;28;80235;-59
2023/01/17 14:14:31;;;;;;;11.35;5.55;;;24.90;44.80;;;;;;6098824;28;80463;-58
2023/01/17 14:17:32;;;;;;;7.82;4.68;;;24.90;44.90;;;;;;6098294;28;80753;-60
2023/01/17 14:20:32;;;;;;;9.23;4.72;;;24.90;44.40;;;;;;6094774;28;80912;-60
2023/01/17 14:23:33;;;;;;;8.20;5.13;;;24.80;44.70;;;;;;6106679;28;80406;-58
2023/01/17 14:26:35;;;;;;;10.73;4.60;;;24.80;44.70;;;;;;6102037;28;80016;-59
2023/01/17 14:29:35;;;;;;;10.05;4.80;;;24.90;44.40;;;;;;6100567;28;80232;-60
2023/01/17 14:32:36;;;;;;;9.13;4.63;;;25.10;44.40;;;;;;6089009;28;81394;-59
2023/01/17 14:35:36;;;;;;;8.23;4.47;;;25.00;44.20;;;;;;6092234;28;80575;-58
2023/01/17 14:38:37;;;;;;;7.93;4.35;;;25.00;44.20;;;;;;6101998;28;81892;-59
2023/01/17 14:41:38;;;;;;;8.50;4.93;;;25.00;44.60;;;;;;6100825;28;80171;-59
2023/01/17 14:44:38;;;;;;;8.32;4.70;;;24.90;44.90;;;;;;6094519;28;81131;-60
2023/01/17 14:47:39;;;;;;;31.00;5.05;;;24.80;44.80;;;;;;6100040;28;80509;-59
2023/01/17 14:50:39;;;;;;;8.82;4.47;;;24.60;44.90;;;;;;6090615;28;81758;-58
2023/01/17 14:53:40;;;;;;;9.38;4.50;;;24.60;44.80;;;;;;6098883;28;80425;-56
2023/01/17 14:56:40;;;;;;;13.15;4.97;;;24.50;45.20;;;;;;6091679;28;81429;-58
2023/01/17 14:59:41;;;;;;;7.20;4.18;;;24.40;45.40;;;;;;6088878;28;81308;-55
2023/01/17 15:02:41;;;;;;;9.80;4.78;;;24.30;45.50;;;;;;6101829;28;80330;-58
2023/01/17 15:05:42;;;;;;;9.00;5.50;;;24.20;45.70;;;;;;6093003;28;80517;-57
2023/01/17 15:08:42;;;;;;;11.57;6.72;;;24.10;46.10;;;;;;6097758;28;84799;-58
2023/01/17 15:11:43;;;;;;;16.92;8.82;;;24.10;46.30;;;;;;6090839;28;80448;-59
2023/01/17 15:14:44;;;;;;;14.70;8.88;;;24.00;46.40;;;;;;6099219;28;80533;-58
2023/01/17 15:17:44;;;;;;;18.00;10.38;;;23.90;47.20;;;;;;6099827;28;81505;-55
2023/01/17 15:20:45;;;;;;;18.70;10.65;;;23.80;47.40;;;;;;6087432;28;82749;-58
2023/01/17 15:23:45;;;;;;;17.52;10.57;;;23.80;47.40;;;;;;6099737;28;84001;-58
2023/01/17 15:26:46;;;;;;;18.35;11.43;;;23.70;47.80;;;;;;6096348;28;88576;-58
2023/01/17 15:29:46;;;;;;;21.33;10.80;;;23.60;47.70;;;;;;6094650;28;88010;-58
2023/01/17 15:32:48;;;;;;;17.13;10.18;;;23.60;48.00;;;;;;6086928;28;87026;-57
2023/01/17 15:35:48;;;;;;;16.25;10.20;;;23.60;48.50;;;;;;6096092;28;88353;-58
2023/01/17 15:38:49;;;;;;;17.23;11.23;;;23.60;48.00;;;;;;6093617;28;83368;-54
2023/01/17 15:41:49;;;;;;;16.02;10.18;;;23.60;47.90;;;;;;6087923;28;83858;-55
2023/01/17 15:44:50;;;;;;;17.45;9.27;;;23.60;47.80;;;;;;6091975;28;84234;-57
2023/01/17 15:47:50;;;;;;;14.55;8.93;;;23.60;48.00;;;;;;6080975;28;82062;-56
2023/01/17 15:50:51;;;;;;;16.58;9.27;;;23.50;48.50;;;;;;6083085;28;83483;-54
2023/01/17 15:53:51;;;;;;;12.55;8.50;;;23.50;47.60;;;;;;6088690;28;80917;-59
2023/01/17 15:56:52;;;;;;;16.45;8.57;;;23.50;47.80;;;;;;6083197;28;81646;-58
2023/01/17 15:59:52;;;;;;;12.40;7.53;;;23.50;47.50;;;;;;6081111;28;83354;-58
2023/01/17 16:02:57;;;;;;;15.18;8.45;;;23.50;47.20;;;;;;6087084;28;81546;-59
2023/01/17 16:05:59;;;;;;;13.10;7.78;;;23.50;47.20;;;;;;6096401;28;82316;-58
2023/01/17 16:08:59;;;;;;;13.02;8.00;;;23.50;47.10;;;;;;6096057;28;81756;-59
2023/01/17 16:12:00;;;;;;;15.70;8.65;;;23.40;46.90;;;;;;6092456;28;81713;-63
2023/01/17 16:15:00;;;;;;;15.15;7.32;;;23.40;47.00;;;;;;6085911;28;80714;-58
2023/01/17 16:18:01;;;;;;;15.75;8.23;;;23.40;47.00;;;;;;6092518;28;81197;-57
2023/01/17 16:21:01;;;;;;;14.63;8.73;;;23.40;47.40;;;;;;6108126;28;80492;-58
2023/01/17 16:24:02;;;;;;;18.08;8.43;;;23.30;47.40;;;;;;6104764;28;80181;-59
2023/01/17 16:27:03;;;;;;;13.95;8.85;;;23.30;47.90;;;;;;6102660;28;80720;-57
2023/01/17 16:30:03;;;;;;;17.85;9.57;;;23.30;48.10;;;;;;6107876;28;81073;-56
2023/01/17 16:33:04;;;;;;;15.82;10.25;;;23.30;47.90;;;;;;6111588;28;80653;-56
2023/01/17 16:36:05;;;;;;;13.88;9.25;;;23.30;47.70;;;;;;6100391;28;83361;-60
2023/01/17 16:39:05;;;;;;;19.00;10.07;;;23.30;47.70;;;;;;6086460;28;84895;-59
2023/01/17 16:42:06;;;;;;;16.63;10.73;;;23.30;48.00;;;;;;6081866;28;88199;-59
2023/01/17 16:45:06;;;;;;;15.98;9.75;;;23.30;48.40;;;;;;6091583;28;83446;-59
2023/01/17 16:48:07;;;;;;;15.90;9.52;;;23.20;48.10;;;;;;6090215;28;84518;-57
2023/01/17 16:51:07;;;;;;;16.30;9.70;;;23.20;48.40;;;;;;6084505;28;81767;-63
2023/01/17 16:54:08;;;;;;;15.98;9.82;;;23.20;48.60;;;;;;6085019;28;80244;-58
2023/01/17 16:57:08;;;;;;;16.17;10.35;;;23.20;48.50;;;;;;6089667;28;80850;-59